createdAt,value
2018-10-03T00:00:24.470Z,100177.59
2018-10-03T00:02:53.068Z,100178.91
2018-10-03T00:05:21.643Z,100182.85
2018-10-03T00:07:50.195Z,100186.31
2018-10-03T00:10:18.821Z,100184.12
2018-10-03T00:12:47.383Z,100192.02
2018-10-03T00:15:15.968Z,100195.07
2018-10-03T00:17:44.726Z,100199.89
2018-10-03T00:20:13.314Z,100200.73
2018-10-03T00:22:41.893Z,100202.89
2018-10-03T00:25:10.395Z,100198.50
2018-10-03T00:27:38.877Z,100203.77
2018-10-03T00:30:07.360Z,100219.94
2018-10-03T00:32:36.098Z,100215.55
2018-10-03T00:35:04.595Z,100212.01
2018-10-03T00:37:33.071Z,100214.64
2018-10-03T00:40:02.007Z,100215.08
2018-10-03T00:42:30.483Z,100228.66
2018-10-03T00:45:13.017Z,100231.28
2018-10-03T00:47:41.541Z,100236.97
2018-10-03T00:50:10.272Z,100235.66
2018-10-03T00:52:38.769Z,100235.66
2018-10-03T00:55:07.568Z,100239.12
2018-10-03T00:57:36.142Z,100242.64
2018-10-03T01:00:04.763Z,100240.45
2018-10-03T01:02:33.361Z,100232.06
2018-10-03T01:05:01.906Z,100230.79
2018-10-03T01:07:30.766Z,100244.37
2018-10-03T01:09:59.363Z,100241.28
2018-10-03T01:12:27.843Z,100235.59
2018-10-03T01:14:56.326Z,100238.23
2018-10-03T01:17:24.894Z,100252.30
2018-10-03T01:19:53.483Z,100247.52
2018-10-03T01:22:22.077Z,100242.30
2018-10-03T01:24:50.637Z,100248.07
2018-10-03T01:27:19.154Z,100249.40
2018-10-03T01:29:47.688Z,100245.05
2018-10-03T01:32:16.225Z,100251.69
2018-10-03T01:34:44.842Z,100246.86
2018-10-03T01:37:13.405Z,100245.12
2018-10-03T01:39:41.971Z,100242.53
2018-10-03T01:42:10.531Z,100240.41
2018-10-03T01:44:39.151Z,100245.27
2018-10-03T01:47:07.727Z,100248.38
2018-10-03T01:49:36.228Z,100251.02
2018-10-03T01:52:04.806Z,100244.06
2018-10-03T01:54:33.528Z,100253.70
2018-10-03T01:57:02.062Z,100257.61
2018-10-03T01:59:30.701Z,100267.70
2018-10-03T02:01:59.443Z,100273.81
2018-10-03T02:04:28.038Z,100272.02
2018-10-03T02:06:56.674Z,100264.59
2018-10-03T02:09:25.223Z,100258.85
2018-10-03T02:11:53.745Z,100274.22
2018-10-03T02:14:22.342Z,100278.17
2018-10-03T02:16:51.116Z,100278.17
2018-10-03T02:19:19.666Z,100276.84
2018-10-03T02:21:48.336Z,100270.27
2018-10-03T02:24:16.836Z,100278.59
2018-10-03T02:26:45.497Z,100277.29
2018-10-03T02:29:14.035Z,100286.51
2018-10-03T02:31:42.636Z,100284.77
2018-10-03T02:34:11.241Z,100283.02
2018-10-03T02:36:39.799Z,100284.76
2018-10-03T02:39:09.502Z,100283.44
2018-10-03T02:41:38.097Z,100280.82
2018-10-03T02:44:06.713Z,100285.23
2018-10-03T02:46:35.353Z,100278.25
2018-10-03T02:49:04.069Z,100276.98
2018-10-03T02:51:33.026Z,100279.22
2018-10-03T02:54:01.525Z,100286.69
2018-10-03T02:56:30.131Z,100298.54
2018-10-03T02:58:58.735Z,100302.50
2018-10-03T03:01:27.331Z,100309.09
2018-10-03T03:03:55.831Z,100281.21
2018-10-03T03:06:24.380Z,100308.66
2018-10-03T03:08:52.933Z,100308.66
2018-10-03T03:11:21.444Z,100309.55
2018-10-03T03:13:50.046Z,100307.34
2018-10-03T03:16:18.578Z,100315.25
2018-10-03T03:18:47.504Z,100317.47
2018-10-03T03:21:16.080Z,100310.89
2018-10-03T03:23:44.570Z,100308.67
2018-10-03T03:26:13.121Z,100309.14
2018-10-03T03:28:41.672Z,100308.30
2018-10-03T03:31:10.145Z,100316.62
2018-10-03T03:33:38.698Z,100313.14
2018-10-03T03:36:07.211Z,100314.46
2018-10-03T03:38:35.843Z,100322.78
2018-10-03T03:41:04.372Z,100323.62
2018-10-03T03:43:33.007Z,100327.09
2018-10-03T03:46:01.561Z,100338.95
2018-10-03T03:48:30.207Z,100338.04
2018-10-03T03:50:58.807Z,100334.50
2018-10-03T03:53:27.427Z,100336.66
2018-10-03T03:55:56.064Z,100342.77
2018-10-03T03:58:24.581Z,100339.72
2018-10-03T04:00:53.127Z,100344.52
2018-10-03T04:03:21.692Z,100338.87
2018-10-03T04:05:50.252Z,100346.34
2018-10-03T04:08:18.853Z,100343.30
2018-10-03T04:10:47.395Z,100181.02
2018-10-03T04:13:15.910Z,100353.06
2018-10-03T04:15:44.465Z,100355.77
2018-10-03T04:18:12.975Z,100351.88
2018-10-03T04:20:41.561Z,100342.34
2018-10-03T04:23:10.157Z,100341.49
2018-10-03T04:25:38.847Z,100344.64
2018-10-03T04:28:07.422Z,100353.91
2018-10-03T04:30:35.988Z,100326.92
2018-10-03T04:33:04.538Z,100354.38
2018-10-03T04:35:33.211Z,100362.23
2018-10-03T04:38:01.661Z,100366.59
2018-10-03T04:40:30.212Z,100369.59
2018-10-03T04:42:58.773Z,100373.07
2018-10-03T04:45:27.366Z,100380.09
2018-10-03T04:47:55.962Z,100376.56
2018-10-03T04:50:24.596Z,100384.84
2018-10-03T04:52:53.219Z,100386.14
2018-10-03T04:55:21.806Z,100379.50
2018-10-03T04:57:50.413Z,100388.67
2018-10-03T05:00:18.925Z,100384.67
2018-10-03T05:02:47.658Z,100386.46
2018-10-03T05:05:16.159Z,100401.78
2018-10-03T05:07:44.716Z,100403.11
2018-10-03T05:10:13.587Z,100405.73
2018-10-03T05:12:42.233Z,100399.16
2018-10-03T05:15:10.842Z,100405.78
2018-10-03T05:17:39.663Z,100411.00
2018-10-03T05:20:08.216Z,100407.05
2018-10-03T05:22:36.795Z,100410.11
2018-10-03T05:25:05.561Z,100418.00
2018-10-03T05:27:34.227Z,100421.09
2018-10-03T05:30:02.734Z,100422.43
2018-10-03T05:32:31.241Z,100436.07
2018-10-03T05:34:59.723Z,100427.80
2018-10-03T05:37:28.215Z,100440.53
2018-10-03T05:39:56.775Z,100439.65
2018-10-03T05:42:25.286Z,100443.64
2018-10-03T05:44:53.856Z,100442.33
2018-10-03T05:47:22.566Z,100445.00
2018-10-03T05:49:51.065Z,100450.72
2018-10-03T05:52:19.644Z,100458.24
2018-10-03T05:54:48.249Z,100469.70
2018-10-03T05:57:16.943Z,100464.91
2018-10-03T05:59:45.602Z,100471.10
2018-10-03T06:05:03.373Z,100472.42
2018-10-03T06:07:31.994Z,100480.73
2018-10-03T06:10:00.654Z,100478.53
2018-10-03T06:12:29.337Z,100484.64
2018-10-03T06:14:57.947Z,100492.96
2018-10-03T06:17:26.706Z,100499.92
2018-10-03T06:19:55.342Z,100505.14
2018-10-03T06:22:24.046Z,100499.39
2018-10-03T06:24:52.579Z,100496.71
2018-10-03T06:27:21.299Z,100495.34
2018-10-03T06:29:49.882Z,100500.99
2018-10-03T06:32:18.836Z,100495.73
2018-10-03T06:34:47.711Z,100500.52
2018-10-03T06:37:16.323Z,100515.89
2018-10-03T06:39:45.216Z,100524.64
2018-10-03T06:42:14.366Z,100529.05
2018-10-03T06:44:43.330Z,100529.02
2018-10-03T06:47:12.102Z,100531.64
2018-10-03T06:49:40.925Z,100537.76
2018-10-03T06:52:09.668Z,100551.77
2018-10-03T06:54:38.220Z,100555.63
2018-10-03T06:57:06.859Z,100550.25
2018-10-03T06:59:35.543Z,100554.84
2018-10-03T07:02:04.211Z,100552.03
2018-10-03T07:04:32.859Z,100565.93
2018-10-03T07:07:01.551Z,100564.94
2018-10-03T07:09:30.794Z,100575.30
2018-10-03T07:11:59.341Z,100577.20
2018-10-03T07:14:28.049Z,100591.50
2018-10-03T07:16:56.608Z,100597.97
2018-10-03T07:19:25.278Z,100604.03
2018-10-03T07:21:53.929Z,100612.34
2018-10-03T07:24:23.696Z,100617.50
2018-10-03T07:26:52.404Z,100619.52
2018-10-03T07:29:21.403Z,100622.39
2018-10-03T07:31:51.214Z,100629.23
2018-10-03T07:34:19.734Z,100630.77
2018-10-03T07:36:48.330Z,100635.89
2018-10-03T07:39:16.888Z,100637.57
2018-10-03T07:41:45.429Z,100640.63
2018-10-03T07:44:13.936Z,100644.58
2018-10-03T07:46:42.395Z,100644.52
2018-10-03T07:49:10.966Z,100655.42
2018-10-03T07:51:39.521Z,100661.92
2018-10-03T07:54:08.026Z,100664.43
2018-10-03T07:56:36.621Z,100663.00
2018-10-03T07:59:05.353Z,100657.95
2018-10-03T08:01:33.872Z,100661.34
2018-10-03T08:04:02.848Z,100665.94
2018-10-03T08:06:31.618Z,100666.58
2018-10-03T08:09:00.713Z,100667.02
2018-10-03T08:11:29.455Z,100673.41
2018-10-03T08:13:58.122Z,100681.07
2018-10-03T08:16:27.145Z,100683.71
2018-10-03T08:18:55.723Z,100686.90
2018-10-03T08:21:24.393Z,100688.43
2018-10-03T08:23:53.065Z,100681.18
2018-10-03T08:26:23.121Z,100687.25
2018-10-03T08:28:51.747Z,100689.36
2018-10-03T08:31:20.387Z,100686.50
2018-10-03T08:33:48.914Z,100606.70
2018-10-03T08:36:17.486Z,100693.42
2018-10-03T08:38:47.060Z,100693.31
2018-10-03T08:41:16.647Z,100700.58
2018-10-03T08:43:45.158Z,100702.41
2018-10-03T08:46:13.644Z,100710.34
2018-10-03T08:48:43.432Z,100714.60
2018-10-03T08:51:12.069Z,100720.97
2018-10-03T08:53:40.617Z,100722.45
2018-10-03T08:56:09.191Z,100722.43
2018-10-03T08:58:37.997Z,100728.67
2018-10-03T09:01:06.348Z,100730.08
2018-10-03T09:03:34.878Z,100732.77
2018-10-03T09:06:03.645Z,100738.34
2018-10-03T09:08:32.256Z,100741.33
2018-10-03T09:11:00.885Z,100748.41
2018-10-03T09:13:29.893Z,100751.00
2018-10-03T09:15:58.634Z,100742.33
2018-10-03T09:18:27.476Z,100743.40
2018-10-03T09:20:56.747Z,100747.20
2018-10-03T09:23:25.823Z,100752.52
2018-10-03T09:25:54.357Z,100755.13
2018-10-03T09:28:22.986Z,100759.20
2018-10-03T09:30:51.609Z,100763.34
2018-10-03T09:33:20.300Z,100772.53
2018-10-03T09:35:49.012Z,100768.46
2018-10-03T09:38:24.891Z,100764.30
2018-10-03T09:40:53.659Z,100764.52
2018-10-03T09:43:23.434Z,100772.70
2018-10-03T09:45:52.095Z,100768.56
2018-10-03T09:48:20.728Z,100768.00
2018-10-03T09:50:49.547Z,100774.27
2018-10-03T09:53:18.231Z,100778.77
2018-10-03T09:55:47.055Z,100790.28
2018-10-03T09:58:15.651Z,100798.92
2018-10-03T10:00:49.478Z,100791.83
2018-10-03T10:03:18.020Z,100789.40
2018-10-03T10:05:46.589Z,100796.65
2018-10-03T10:08:15.168Z,100800.28
2018-10-03T10:10:43.713Z,100798.37
2018-10-03T10:13:14.607Z,100798.55
2018-10-03T10:15:43.252Z,100801.54
2018-10-03T10:18:12.047Z,100800.86
2018-10-03T10:20:40.635Z,100808.73
2018-10-03T10:23:09.234Z,100802.11
2018-10-03T10:25:37.872Z,100802.44
2018-10-03T10:28:06.853Z,100811.14
2018-10-03T10:30:35.568Z,100816.41
2018-10-03T10:33:04.111Z,100814.13
2018-10-03T10:35:32.766Z,100807.83
2018-10-03T10:38:01.286Z,100808.97
2018-10-03T10:40:29.923Z,100810.06
2018-10-03T10:42:58.336Z,100805.60
2018-10-03T10:45:27.029Z,100800.53
2018-10-03T10:47:55.572Z,100807.58
2018-10-03T10:50:24.319Z,100807.22
2018-10-03T10:52:52.812Z,100806.52
2018-10-03T10:55:21.387Z,100821.03
2018-10-03T10:57:50.479Z,100819.19
2018-10-03T11:00:18.961Z,100813.47
2018-10-03T11:02:47.524Z,100820.76
2018-10-03T11:05:16.045Z,100820.52
2018-10-03T11:07:44.556Z,100816.36
2018-10-03T11:10:13.305Z,100823.57
2018-10-03T11:12:42.699Z,100824.66
2018-10-03T11:15:11.717Z,100828.61
2018-10-03T11:17:40.415Z,100823.78
2018-10-03T11:20:08.910Z,100827.26
2018-10-03T11:22:37.546Z,100831.97
2018-10-03T11:25:06.020Z,100832.82
2018-10-03T11:27:34.504Z,100829.88
2018-10-03T11:30:03.067Z,100822.81
2018-10-03T11:32:31.543Z,100831.62
2018-10-03T11:34:59.984Z,100836.77
2018-10-03T11:37:28.521Z,100825.58
2018-10-03T11:39:57.048Z,100820.08
2018-10-03T11:42:25.581Z,100832.59
2018-10-03T11:44:54.030Z,100831.67
2018-10-03T11:47:22.570Z,100828.50
2018-10-03T11:49:51.050Z,100832.76
2018-10-03T11:52:19.626Z,100824.64
2018-10-03T11:54:48.161Z,100832.01
2018-10-03T11:57:16.700Z,100827.58
2018-10-03T11:59:45.318Z,100836.16
2018-10-03T12:02:13.926Z,100826.99
2018-10-03T12:04:42.482Z,100832.84
2018-10-03T12:07:10.981Z,100829.58
2018-10-03T12:09:39.433Z,100828.31
2018-10-03T12:12:07.925Z,100830.03
2018-10-03T12:14:36.403Z,100822.48
2018-10-03T12:17:04.909Z,100819.70
2018-10-03T12:19:33.483Z,100823.19
2018-10-03T12:22:01.951Z,100822.28
2018-10-03T12:24:30.449Z,100820.87
2018-10-03T12:26:58.914Z,100827.66
2018-10-03T12:29:27.334Z,100828.74
2018-10-03T12:31:55.827Z,100823.36
2018-10-03T12:34:24.538Z,100823.48
2018-10-03T12:36:52.986Z,100825.34
2018-10-03T12:39:21.457Z,100831.84
2018-10-03T12:41:49.996Z,100838.69
2018-10-03T12:44:18.472Z,100835.48
2018-10-03T12:46:46.967Z,100827.33
2018-10-03T12:49:15.511Z,100825.59
2018-10-03T12:51:44.030Z,100823.66
2018-10-03T12:54:12.528Z,100819.85
2018-10-03T12:56:41.032Z,100825.05
2018-10-03T12:59:09.527Z,100820.84
2018-10-03T13:01:38.143Z,100820.17
2018-10-03T13:04:06.695Z,100809.61
2018-10-03T13:06:35.351Z,100810.25
2018-10-03T13:09:05.605Z,100815.48
2018-10-03T13:11:34.146Z,100824.84
2018-10-03T13:14:02.749Z,100821.22
2018-10-03T13:16:31.324Z,100829.56
2018-10-03T13:18:59.964Z,100827.19
2018-10-03T13:21:28.836Z,100820.23
2018-10-03T13:23:57.700Z,100819.45
2018-10-03T13:26:26.331Z,100819.20
2018-10-03T13:28:54.993Z,100823.46
2018-10-03T13:31:23.599Z,100820.39
2018-10-03T13:33:52.188Z,100827.47
2018-10-03T13:36:20.753Z,100824.11
2018-10-03T13:38:49.452Z,100825.19
2018-10-03T13:41:18.210Z,100826.55
2018-10-03T13:43:46.887Z,100826.65
2018-10-03T13:46:15.571Z,100817.50
2018-10-03T13:48:44.465Z,100831.52
2018-10-03T13:51:12.951Z,100830.37
2018-10-03T13:53:41.420Z,100826.91
2018-10-03T13:56:09.914Z,100824.77
2018-10-03T13:58:38.378Z,100826.55
2018-10-03T14:01:06.827Z,100827.56
2018-10-03T14:03:35.343Z,100825.58
2018-10-03T14:06:03.898Z,100818.70
2018-10-03T14:08:32.494Z,100816.50
2018-10-03T14:11:01.167Z,100810.61
2018-10-03T14:13:29.942Z,100816.18
2018-10-03T14:15:58.580Z,100817.63
2018-10-03T14:18:27.154Z,100816.05
2018-10-03T14:20:55.728Z,100813.23
2018-10-03T14:23:24.415Z,100814.83
2018-10-03T14:25:53.579Z,100816.22
2018-10-03T14:28:22.106Z,100813.46
2018-10-03T14:30:50.608Z,100816.53
2018-10-03T14:33:19.249Z,100824.84
2018-10-03T14:35:48.311Z,100820.80
2018-10-03T14:38:16.979Z,100824.19
2018-10-03T14:40:45.520Z,100825.25
2018-10-03T14:43:14.180Z,100827.13
2018-10-03T14:45:43.783Z,100826.45
2018-10-03T14:48:12.310Z,100817.79
2018-10-03T14:50:40.831Z,100815.71
2018-10-03T14:53:09.370Z,100824.33
2018-10-03T14:55:37.938Z,100824.33
2018-10-03T14:58:06.466Z,100819.56
2018-10-03T15:00:35.042Z,100815.23
2018-10-03T15:03:03.636Z,100820.61
2018-10-03T15:05:32.134Z,100822.52
2018-10-03T15:08:00.760Z,100825.64
2018-10-03T15:10:33.056Z,100827.04
2018-10-03T15:13:01.520Z,100823.63
2018-10-03T15:15:30.038Z,100818.44
2018-10-03T15:18:00.601Z,100814.20
2018-10-03T15:20:31.942Z,100817.47
2018-10-03T15:23:00.556Z,100820.22
2018-10-03T15:25:31.715Z,100813.23
2018-10-03T15:28:02.654Z,100816.04
2018-10-03T15:30:31.425Z,100819.73
2018-10-03T15:33:04.796Z,100819.03
2018-10-03T15:35:33.670Z,100818.74
2018-10-03T15:38:02.304Z,100824.25
2018-10-03T15:40:31.060Z,100816.86
2018-10-03T15:43:03.558Z,100824.90
2018-10-03T15:48:20.553Z,100829.08
2018-10-03T15:50:49.054Z,100828.78
2018-10-03T15:53:17.999Z,100831.05
2018-10-03T15:55:47.580Z,100835.64
2018-10-03T15:58:16.212Z,100834.42
2018-10-03T16:00:44.709Z,100831.48
2018-10-03T16:03:27.231Z,100836.52
2018-10-03T16:05:59.645Z,100837.12
2018-10-03T16:08:28.783Z,100835.06
2018-10-03T16:10:58.984Z,100832.54
2018-10-03T16:13:28.584Z,100836.18
2018-10-03T16:15:57.438Z,100671.57
2018-10-03T16:18:26.093Z,100833.81
2018-10-03T16:20:54.808Z,100837.00
2018-10-03T16:23:23.396Z,100833.56
2018-10-03T16:25:52.018Z,100830.52
2018-10-03T16:28:20.705Z,100837.23
2018-10-03T16:30:49.375Z,100832.03
2018-10-03T16:33:18.810Z,100836.11
2018-10-03T16:35:48.261Z,100839.28
2018-10-03T16:38:17.023Z,100844.26
2018-10-03T16:40:45.843Z,100844.33
2018-10-03T16:43:14.373Z,100851.53
2018-10-03T16:45:43.049Z,100854.27
2018-10-03T16:48:11.753Z,100859.23
2018-10-03T16:50:40.554Z,100865.05
2018-10-03T16:53:09.898Z,100868.25
2018-10-03T16:55:38.550Z,100869.20
2018-10-03T16:58:09.485Z,100872.84
2018-10-03T17:00:39.400Z,100879.09
2018-10-03T17:03:08.995Z,100881.84
2018-10-03T17:05:37.873Z,100880.22
2018-10-03T17:08:06.479Z,100806.41
2018-10-03T17:10:35.201Z,100889.78
2018-10-03T17:13:04.655Z,100891.52
2018-10-03T17:15:34.524Z,100901.31
2018-10-03T17:18:03.068Z,100899.15
2018-10-03T17:20:31.637Z,100901.37
2018-10-03T17:23:00.597Z,100901.38
2018-10-03T17:25:29.230Z,100888.30
2018-10-03T17:27:57.877Z,100742.06
2018-10-03T17:30:26.526Z,100902.02
2018-10-03T17:32:55.076Z,100902.98
2018-10-03T17:35:23.736Z,100904.37
2018-10-03T17:37:52.400Z,100909.70
2018-10-03T17:40:20.981Z,100912.38
2018-10-03T17:42:49.501Z,100918.14
2018-10-03T17:45:18.037Z,100916.03
2018-10-03T17:47:46.622Z,100925.33
2018-10-03T17:50:15.149Z,100923.61
2018-10-03T17:52:44.945Z,100921.98
2018-10-03T17:55:13.610Z,100925.15
2018-10-03T17:57:42.048Z,100928.28
2018-10-03T18:00:10.766Z,100931.83
2018-10-03T18:02:39.261Z,100932.30
2018-10-03T18:05:07.791Z,100934.06
2018-10-03T18:07:36.310Z,100936.73
2018-10-03T18:10:05.134Z,100931.89
2018-10-03T18:12:33.855Z,100942.91
2018-10-03T18:15:03.321Z,100940.34
2018-10-03T18:17:32.140Z,100941.75
2018-10-03T18:20:00.740Z,100938.73
2018-10-03T18:22:29.366Z,100944.96
2018-10-03T18:24:58.057Z,100947.27
2018-10-03T18:27:26.746Z,100945.98
2018-10-03T18:29:55.389Z,100957.05
2018-10-03T18:32:24.009Z,100947.01
2018-10-03T18:34:52.686Z,100958.92
2018-10-03T18:37:21.325Z,100953.29
2018-10-03T18:39:50.055Z,100958.60
2018-10-03T18:42:18.790Z,100958.20
2018-10-03T18:44:47.423Z,100957.38
2018-10-03T18:47:16.067Z,100955.64
2018-10-03T18:49:44.672Z,100947.33
2018-10-03T18:52:13.379Z,100952.20
2018-10-03T18:54:42.110Z,100954.44
2018-10-03T18:57:10.740Z,100954.92
2018-10-03T18:59:39.346Z,100959.33
2018-10-03T19:02:08.022Z,100956.33
2018-10-03T19:04:36.607Z,100961.19
2018-10-03T19:07:05.236Z,100962.95
2018-10-03T19:09:33.909Z,100962.09
2018-10-03T19:12:02.642Z,100969.58
2018-10-03T19:14:31.257Z,100962.59
2018-10-03T19:16:59.903Z,100968.30
2018-10-03T19:19:28.452Z,100959.99
2018-10-03T19:21:57.072Z,100967.45
2018-10-03T19:24:25.619Z,100963.09
2018-10-03T19:26:54.248Z,100977.13
2018-10-03T19:29:22.862Z,100975.41
2018-10-03T19:31:51.473Z,100972.79
2018-10-03T19:34:20.030Z,100975.41
2018-10-03T19:36:48.613Z,100974.53
2018-10-03T19:39:17.191Z,100976.30
2018-10-03T19:41:45.780Z,100977.62
2018-10-03T19:44:14.322Z,100978.48
2018-10-03T19:46:42.969Z,100974.54
2018-10-03T19:49:11.609Z,100975.87
2018-10-03T19:51:40.331Z,100970.19
2018-10-03T19:54:09.176Z,100970.62
2018-10-03T19:56:37.834Z,100968.42
2018-10-03T19:59:06.518Z,100973.71
2018-10-03T20:01:35.164Z,100976.33
2018-10-03T20:04:03.812Z,100975.02
2018-10-03T20:06:32.562Z,100975.92
2018-10-03T20:09:01.244Z,100973.29
2018-10-03T20:11:29.814Z,100921.99
2018-10-03T20:13:58.531Z,100976.34
2018-10-03T20:16:27.181Z,100980.30
2018-10-03T20:18:55.967Z,100977.22
2018-10-03T20:21:24.665Z,100986.88
2018-10-03T20:23:53.263Z,100980.73
2018-10-03T20:26:22.023Z,100975.91
2018-10-03T20:28:50.776Z,100984.25
2018-10-03T20:31:19.408Z,100983.78
2018-10-03T20:33:48.017Z,100977.66
2018-10-03T20:36:16.657Z,100984.22
2018-10-03T20:38:45.797Z,100982.03
2018-10-03T20:41:15.002Z,100987.72
2018-10-03T20:43:44.035Z,100985.08
2018-10-03T20:46:13.301Z,100986.39
2018-10-03T20:48:42.489Z,100986.84
2018-10-03T20:51:11.617Z,100987.70
2018-10-03T20:53:40.580Z,100986.83
2018-10-03T20:56:10.193Z,100999.94
2018-10-03T20:58:39.232Z,100996.86
2018-10-03T21:01:09.247Z,101002.55
2018-10-03T21:03:38.219Z,101000.35
2018-10-03T21:06:07.404Z,100996.83
2018-10-03T21:08:36.465Z,100994.61
2018-10-03T21:11:05.397Z,100998.54
2018-10-03T21:13:34.136Z,100998.12
2018-10-03T21:16:03.165Z,100999.84
2018-10-03T21:18:33.187Z,100995.00
2018-10-03T21:21:01.820Z,100991.06
2018-10-03T21:23:30.419Z,100994.13
2018-10-03T21:25:59.099Z,100998.50
2018-10-03T21:28:27.788Z,101001.09
2018-10-03T21:30:56.405Z,101006.78
2018-10-03T21:33:24.994Z,101003.28
2018-10-03T21:35:53.689Z,101007.66
2018-10-03T21:41:02.191Z,101011.45
2018-10-03T21:43:30.821Z,101012.86
2018-10-03T21:45:59.335Z,101010.68
2018-10-03T21:48:27.802Z,101008.49
2018-10-03T21:50:56.353Z,101010.68
2018-10-03T21:53:24.797Z,101014.63
2018-10-03T21:55:53.340Z,101015.05
2018-10-03T21:58:21.786Z,101009.77
2018-10-03T22:00:54.258Z,101010.17
2018-10-03T22:03:23.043Z,101009.31
2018-10-03T22:05:51.498Z,101006.64
2018-10-03T22:08:19.997Z,101011.00
2018-10-03T22:10:48.721Z,101008.39
2018-10-03T22:13:17.225Z,101011.41
2018-10-03T22:15:46.243Z,101017.09
2018-10-03T22:18:14.701Z,101019.28
2018-10-03T22:20:43.167Z,101014.88
2018-10-03T22:23:11.752Z,101005.69
2018-10-03T22:25:40.125Z,101012.23
2018-10-03T22:28:08.591Z,101008.28
2018-10-03T22:30:37.111Z,101006.06
2018-10-03T22:33:05.562Z,101008.25
2018-10-03T22:35:34.002Z,101013.93
2018-10-03T22:38:02.480Z,101014.36
2018-10-03T22:40:30.973Z,101024.38
2018-10-03T22:42:59.458Z,101024.38
2018-10-03T22:45:27.942Z,101023.05
2018-10-03T22:47:56.427Z,101019.96
2018-10-03T22:50:24.918Z,101016.87
2018-10-03T22:52:53.369Z,101024.30
2018-10-03T22:55:21.842Z,101019.94
2018-10-03T22:57:50.244Z,101020.77
2018-10-03T23:00:18.703Z,101012.48
2018-10-03T23:02:47.116Z,101013.77
2018-10-03T23:05:15.590Z,101018.14
2018-10-03T23:07:44.025Z,101017.70
2018-10-03T23:10:12.558Z,101014.18
2018-10-03T23:12:40.998Z,101017.26
2018-10-03T23:15:09.511Z,101018.55
2018-10-03T23:17:37.978Z,101015.91
2018-10-03T23:20:06.431Z,101009.78
2018-10-03T23:22:34.877Z,101014.13
2018-10-03T23:25:03.348Z,101009.73
2018-10-03T23:27:31.845Z,101010.16
2018-10-03T23:30:00.293Z,101013.19
2018-10-03T23:32:28.716Z,101018.83
2018-10-03T23:34:57.142Z,101016.61
2018-10-03T23:37:25.602Z,101017.01
2018-10-03T23:39:54.052Z,101022.67
2018-10-03T23:42:22.511Z,101026.17
2018-10-03T23:44:50.951Z,101028.77
2018-10-03T23:47:19.429Z,101032.65
2018-10-03T23:49:47.895Z,101033.97
2018-10-03T23:52:16.343Z,101037.88
2018-10-03T23:54:44.824Z,101037.83
2018-10-03T23:57:13.318Z,101027.32
2018-10-03T23:59:41.792Z,101031.65
